createdAt,value
2019-01-19T00:01:54.607Z,8.63
2019-01-19T00:05:15.061Z,8.00
2019-01-19T00:08:12.763Z,8.03
2019-01-19T00:11:49.246Z,7.93
2019-01-19T00:15:00.042Z,7.47
2019-01-19T00:18:27.433Z,7.87
2019-01-19T00:21:30.063Z,7.60
2019-01-19T00:25:00.639Z,8.10
2019-01-19T00:28:06.124Z,7.60
2019-01-19T00:30:52.099Z,8.73
2019-01-19T00:34:10.233Z,7.97
2019-01-19T00:36:50.373Z,7.63
2019-01-19T00:39:59.122Z,8.40
2019-01-19T00:42:51.649Z,8.53
2019-01-19T00:45:45.574Z,7.37
2019-01-19T00:48:27.420Z,7.67
2019-01-19T00:51:39.571Z,7.40
2019-01-19T00:54:35.086Z,7.23
2019-01-19T00:57:22.312Z,7.90
2019-01-19T01:00:00.571Z,7.23
2019-01-19T01:03:24.396Z,7.47
2019-01-19T01:06:32.448Z,9.37
2019-01-19T01:09:54.029Z,7.17
2019-01-19T01:12:57.922Z,8.20
2019-01-19T01:15:55.807Z,8.00
2019-01-19T01:18:51.228Z,8.00
2019-01-19T01:22:17.305Z,8.83
2019-01-19T01:25:37.552Z,8.13
2019-01-19T01:29:01.751Z,8.00
2019-01-19T01:31:58.042Z,8.90
2019-01-19T01:34:45.364Z,8.60
2019-01-19T01:37:43.559Z,8.57
2019-01-19T01:41:16.984Z,9.00
2019-01-19T01:44:05.508Z,8.70
2019-01-19T01:47:39.152Z,9.10
2019-01-19T01:50:18.721Z,8.67
2019-01-19T01:53:13.056Z,9.30
2019-01-19T01:55:47.577Z,8.40
2019-01-19T01:58:43.698Z,8.43
2019-01-19T02:01:46.794Z,8.93
2019-01-19T02:04:54.150Z,8.60
2019-01-19T02:08:17.302Z,7.90
2019-01-19T02:11:29.580Z,7.83
2019-01-19T02:14:51.000Z,8.00
2019-01-19T02:17:51.954Z,9.00
2019-01-19T02:21:00.107Z,8.30
2019-01-19T02:24:08.270Z,8.37
2019-01-19T02:27:09.769Z,8.67
2019-01-19T02:30:09.031Z,9.67
2019-01-19T02:33:17.808Z,8.03
2019-01-19T02:36:16.749Z,8.80
2019-01-19T02:39:29.352Z,8.60
2019-01-19T02:42:36.599Z,8.73
2019-01-19T02:45:48.990Z,8.40
2019-01-19T02:48:56.140Z,8.40
2019-01-19T02:52:10.100Z,8.63
2019-01-19T02:55:25.305Z,8.23
2019-01-19T02:58:36.063Z,8.00
2019-01-19T03:01:44.309Z,7.87
2019-01-19T03:04:51.646Z,7.83
2019-01-19T03:08:16.263Z,7.70
2019-01-19T03:11:09.795Z,8.27
2019-01-19T03:14:23.092Z,8.47
2019-01-19T03:17:44.339Z,7.70
2019-01-19T03:20:36.727Z,8.80
2019-01-19T03:23:29.375Z,8.10
2019-01-19T03:26:46.247Z,8.13
2019-01-19T03:29:54.319Z,8.13
2019-01-19T03:33:12.597Z,8.63
2019-01-19T03:36:07.069Z,8.10
2019-01-19T03:39:28.971Z,8.50
2019-01-19T03:42:29.074Z,8.37
2019-01-19T03:45:47.266Z,8.33
2019-01-19T03:48:30.310Z,8.13
2019-01-19T03:51:25.172Z,7.67
2019-01-19T03:54:10.617Z,8.37
2019-01-19T03:57:25.660Z,8.30
2019-01-19T04:00:20.553Z,8.60
2019-01-19T04:03:31.860Z,8.73
2019-01-19T04:06:43.355Z,7.73
2019-01-19T04:09:51.486Z,7.90
2019-01-19T04:12:50.426Z,7.60
2019-01-19T04:16:09.287Z,7.57
2019-01-19T04:19:24.310Z,7.73
2019-01-19T04:22:22.043Z,8.23
2019-01-19T04:25:37.384Z,8.30
2019-01-19T04:28:08.805Z,8.30
2019-01-19T04:30:39.969Z,8.30
2019-01-19T04:33:11.119Z,8.17
2019-01-19T04:35:42.278Z,7.67
2019-01-19T04:38:13.599Z,7.77
2019-01-19T04:40:44.827Z,7.47
2019-01-19T04:43:16.139Z,8.20
2019-01-19T04:45:47.324Z,8.20
2019-01-19T04:48:20.231Z,7.87
2019-01-19T04:50:51.475Z,8.33
2019-01-19T04:53:22.670Z,10.30
2019-01-19T04:55:53.886Z,9.07
2019-01-19T04:58:25.061Z,8.53
2019-01-19T05:00:56.303Z,8.20
2019-01-19T05:03:28.556Z,8.70
2019-01-19T05:05:59.756Z,8.37
2019-01-19T05:08:30.971Z,8.07
2019-01-19T05:11:02.128Z,11.87
2019-01-19T05:13:33.312Z,9.73
2019-01-19T05:16:04.470Z,8.10
2019-01-19T05:18:35.825Z,8.33
2019-01-19T05:21:07.236Z,7.83
2019-01-19T05:23:38.678Z,8.17
2019-01-19T05:26:09.874Z,8.17
2019-01-19T05:28:41.065Z,8.63
2019-01-19T05:31:12.391Z,8.77
2019-01-19T05:33:43.661Z,8.33
2019-01-19T05:36:14.878Z,7.97
2019-01-19T05:38:46.048Z,9.40
2019-01-19T05:41:17.255Z,7.77
2019-01-19T05:43:48.433Z,8.50
2019-01-19T05:46:21.462Z,27.77
2019-01-19T05:48:52.977Z,22.03
2019-01-19T05:51:24.216Z,9.90
2019-01-19T05:53:55.434Z,8.50
2019-01-19T05:56:26.610Z,9.13
2019-01-19T05:58:57.907Z,8.07
2019-01-19T06:01:29.562Z,8.07
2019-01-19T06:04:00.768Z,7.63
2019-01-19T06:06:31.973Z,8.53
2019-01-19T06:09:04.148Z,9.77
2019-01-19T06:11:35.395Z,7.93
2019-01-19T06:14:06.549Z,7.57
2019-01-19T06:16:37.751Z,7.33
2019-01-19T06:19:09.328Z,8.17
2019-01-19T06:21:49.504Z,8.07
2019-01-19T06:24:20.764Z,7.27
2019-01-19T06:26:52.002Z,8.13
2019-01-19T06:29:23.190Z,7.63
2019-01-19T06:31:54.369Z,11.00
2019-01-19T06:34:25.632Z,11.93
2019-01-19T06:36:56.801Z,10.30
2019-01-19T06:39:28.098Z,8.97
2019-01-19T06:41:59.287Z,9.53
2019-01-19T06:44:30.506Z,8.57
2019-01-19T06:47:01.845Z,8.07
2019-01-19T06:49:33.015Z,8.73
2019-01-19T06:52:04.217Z,9.37
2019-01-19T06:54:35.432Z,8.87
2019-01-19T06:57:06.652Z,8.13
2019-01-19T06:59:37.832Z,8.00
2019-01-19T07:02:09.073Z,8.33
2019-01-19T07:04:40.253Z,7.67
2019-01-19T07:07:11.521Z,7.80
2019-01-19T07:09:42.705Z,8.17
2019-01-19T07:12:13.905Z,7.50
2019-01-19T07:14:45.184Z,8.30
2019-01-19T07:17:16.370Z,8.30
2019-01-19T07:19:47.555Z,8.43
2019-01-19T07:22:18.817Z,8.00
2019-01-19T07:24:50.108Z,7.70
2019-01-19T07:27:21.296Z,7.60
2019-01-19T07:29:52.520Z,7.57
2019-01-19T07:32:23.668Z,9.17
2019-01-19T07:34:54.859Z,8.20
2019-01-19T07:37:27.088Z,8.70
2019-01-19T07:39:58.296Z,8.13
2019-01-19T07:42:29.544Z,7.60
2019-01-19T07:45:00.745Z,8.30
2019-01-19T07:47:32.234Z,7.97
2019-01-19T07:50:03.486Z,8.07
2019-01-19T07:52:34.821Z,9.10
2019-01-19T07:55:06.670Z,8.00
2019-01-19T07:57:37.855Z,8.43
2019-01-19T08:00:13.531Z,8.97
2019-01-19T08:02:44.758Z,8.37
2019-01-19T08:05:16.373Z,9.07
2019-01-19T08:07:47.566Z,9.57
2019-01-19T08:10:18.975Z,9.40
2019-01-19T08:12:50.140Z,9.20
2019-01-19T08:15:23.263Z,11.90
2019-01-19T08:17:54.451Z,12.70
2019-01-19T08:20:25.674Z,11.70
2019-01-19T08:22:56.875Z,11.67
2019-01-19T08:25:28.016Z,12.47
2019-01-19T08:27:59.278Z,11.73
2019-01-19T08:30:31.315Z,12.63
2019-01-19T08:33:02.526Z,11.33
2019-01-19T08:35:34.217Z,11.73
2019-01-19T08:38:05.406Z,11.70
2019-01-19T08:40:37.468Z,11.20
2019-01-19T08:43:30.774Z,10.90
2019-01-19T08:46:02.271Z,10.10
2019-01-19T08:48:33.701Z,10.13
2019-01-19T08:51:04.992Z,10.53
2019-01-19T08:53:37.282Z,10.27
2019-01-19T08:56:08.483Z,11.07
2019-01-19T08:58:39.702Z,12.57
2019-01-19T09:01:11.052Z,10.97
2019-01-19T09:03:42.282Z,10.40
2019-01-19T09:06:13.461Z,10.27
2019-01-19T09:08:44.697Z,11.20
2019-01-19T09:11:15.993Z,10.87
2019-01-19T09:13:47.172Z,11.93
2019-01-19T09:16:20.689Z,10.63
2019-01-19T09:18:51.880Z,10.80
2019-01-19T09:21:23.096Z,9.30
2019-01-19T09:24:17.311Z,10.20
2019-01-19T09:26:48.550Z,10.30
2019-01-19T09:29:19.755Z,9.70
2019-01-19T09:31:50.928Z,10.73
2019-01-19T09:34:22.167Z,10.00
2019-01-19T09:36:53.375Z,10.97
2019-01-19T09:39:24.584Z,9.47
2019-01-19T09:41:55.804Z,10.63
2019-01-19T09:44:26.911Z,9.57
2019-01-19T09:46:58.037Z,11.10
2019-01-19T09:49:29.187Z,10.90
2019-01-19T09:52:00.284Z,10.80
2019-01-19T09:54:31.533Z,10.23
2019-01-19T09:57:02.740Z,9.70
2019-01-19T09:59:33.869Z,9.90
2019-01-19T10:02:05.044Z,9.63
2019-01-19T10:04:36.245Z,10.60
2019-01-19T10:07:07.485Z,9.70
2019-01-19T10:09:38.714Z,9.30
2019-01-19T10:12:09.939Z,9.20
2019-01-19T10:14:41.103Z,10.23
2019-01-19T10:17:12.326Z,9.90
2019-01-19T10:19:43.516Z,10.10
2019-01-19T10:22:14.671Z,9.90
2019-01-19T10:24:45.870Z,9.80
2019-01-19T10:27:17.091Z,11.00
2019-01-19T10:29:48.306Z,10.37
2019-01-19T10:32:19.604Z,10.40
2019-01-19T10:34:50.770Z,9.87
2019-01-19T10:37:21.936Z,10.57
2019-01-19T10:39:53.103Z,9.57
2019-01-19T10:42:24.465Z,10.37
2019-01-19T10:44:56.767Z,11.00
2019-01-19T10:47:27.974Z,10.20
2019-01-19T10:49:59.194Z,10.07
2019-01-19T10:52:30.426Z,9.80
2019-01-19T10:55:01.615Z,10.07
2019-01-19T10:57:32.777Z,10.50
2019-01-19T11:00:04.540Z,9.93
2019-01-19T11:02:36.856Z,10.17
2019-01-19T11:05:10.544Z,9.60
2019-01-19T11:07:43.834Z,9.97
2019-01-19T11:10:17.237Z,10.10
2019-01-19T11:12:48.405Z,9.93
2019-01-19T11:15:19.611Z,10.50
2019-01-19T11:17:50.879Z,10.90
2019-01-19T11:20:25.671Z,10.37
2019-01-19T11:22:57.917Z,10.30
2019-01-19T11:25:29.153Z,11.20
2019-01-19T11:28:00.375Z,10.47
2019-01-19T11:30:32.163Z,10.63
2019-01-19T11:33:03.401Z,10.73
2019-01-19T11:35:34.563Z,10.87
2019-01-19T11:38:11.775Z,10.30
2019-01-19T11:40:39.535Z,10.73
2019-01-19T11:43:11.503Z,10.40
2019-01-19T11:45:42.723Z,11.17
2019-01-19T11:48:14.059Z,11.00
2019-01-19T11:50:45.375Z,10.33
2019-01-19T11:53:16.701Z,10.77
2019-01-19T11:55:47.936Z,10.67
2019-01-19T11:58:19.100Z,10.67
2019-01-19T12:00:50.286Z,10.27
2019-01-19T12:03:21.588Z,9.70
2019-01-19T12:05:52.821Z,10.77
2019-01-19T12:08:24.007Z,11.60
2019-01-19T12:10:55.215Z,12.67
2019-01-19T12:13:26.413Z,11.63
2019-01-19T12:15:57.570Z,10.37
2019-01-19T12:18:28.817Z,10.10
2019-01-19T12:20:59.991Z,10.63
2019-01-19T12:23:31.246Z,11.27
2019-01-19T12:26:02.481Z,11.20
2019-01-19T12:28:33.685Z,11.63
2019-01-19T12:31:05.294Z,11.33
2019-01-19T12:33:36.549Z,11.60
2019-01-19T12:36:07.753Z,11.23
2019-01-19T12:38:39.050Z,12.33
2019-01-19T12:41:10.414Z,10.87
2019-01-19T12:43:41.679Z,12.50
2019-01-19T12:46:13.060Z,12.37
2019-01-19T12:48:44.301Z,12.03
2019-01-19T12:51:15.501Z,12.83
2019-01-19T12:53:46.656Z,13.00
2019-01-19T12:56:17.889Z,11.90
2019-01-19T12:58:49.200Z,12.30
2019-01-19T13:01:20.468Z,10.47
2019-01-19T13:03:51.693Z,12.13
2019-01-19T13:06:47.798Z,11.90
2019-01-19T13:09:27.837Z,11.13
2019-01-19T13:12:19.805Z,10.93
2019-01-19T13:15:03.178Z,17.67
2019-01-19T13:18:30.727Z,12.23
2019-01-19T13:21:47.716Z,9.90
2019-01-19T13:25:01.879Z,10.20
2019-01-19T13:28:11.651Z,10.27
2019-01-19T13:30:54.738Z,10.23
2019-01-19T13:33:43.726Z,9.30
2019-01-19T13:36:40.915Z,9.47
2019-01-19T13:39:23.197Z,9.73
2019-01-19T13:42:43.909Z,10.13
2019-01-19T13:45:55.341Z,10.77
2019-01-19T13:49:01.995Z,8.67
2019-01-19T13:51:57.338Z,8.60
2019-01-19T13:55:00.666Z,7.93
2019-01-19T13:57:55.653Z,7.60
2019-01-19T14:51:40.260Z,11.30
2019-01-19T14:54:46.633Z,10.23
2019-01-19T14:57:52.341Z,10.73
2019-01-19T15:01:11.184Z,10.50
2019-01-19T15:04:29.841Z,9.97
2019-01-19T15:07:42.412Z,9.87
2019-01-19T15:10:45.228Z,10.13
2019-01-19T15:13:57.477Z,10.37
2019-01-19T15:17:28.249Z,11.60
2019-01-19T15:20:34.149Z,12.03
2019-01-19T15:23:51.979Z,13.17
2019-01-19T15:26:58.876Z,12.63
2019-01-19T15:29:55.841Z,12.93
2019-01-19T15:32:53.373Z,13.77
2019-01-19T15:36:08.911Z,12.77
2019-01-19T15:39:23.726Z,13.23
2019-01-19T15:42:29.092Z,13.67
2019-01-19T15:45:32.163Z,14.90
2019-01-19T15:49:06.046Z,14.00
2019-01-19T15:52:46.056Z,13.30
2019-01-19T15:56:13.211Z,13.33
2019-01-19T15:59:23.995Z,13.57
2019-01-19T16:02:57.625Z,13.40
2019-01-19T16:06:22.133Z,14.03
2019-01-19T16:09:20.046Z,13.37
2019-01-19T16:12:30.107Z,14.03
2019-01-19T16:15:27.232Z,14.30
2019-01-19T16:18:42.958Z,15.33
2019-01-19T16:21:36.099Z,15.93
2019-01-19T16:25:06.403Z,15.27
2019-01-19T16:28:28.405Z,14.93
2019-01-19T16:31:44.184Z,16.27
2019-01-19T16:35:05.746Z,15.07
2019-01-19T16:38:18.965Z,16.03
2019-01-19T16:41:37.355Z,16.50
2019-01-19T16:44:47.310Z,15.77
2019-01-19T16:47:48.492Z,16.47
2019-01-19T16:50:56.110Z,17.40
2019-01-19T16:53:45.432Z,16.27
2019-01-19T16:56:40.016Z,16.83
2019-01-19T17:00:02.200Z,16.47
2019-01-19T17:03:15.627Z,16.93
2019-01-19T17:06:22.057Z,17.60
2019-01-19T17:09:32.915Z,17.13
2019-01-19T17:12:38.249Z,15.33
2019-01-19T17:15:50.366Z,15.30
2019-01-19T17:19:02.641Z,15.50
2019-01-19T17:22:21.123Z,16.10
2019-01-19T17:25:06.778Z,16.53
2019-01-19T17:27:55.813Z,15.73
2019-01-19T17:31:26.440Z,15.37
2019-01-19T17:34:45.051Z,16.43
2019-01-19T17:37:46.148Z,15.63
2019-01-19T17:40:47.503Z,17.43
2019-01-19T17:43:55.630Z,17.50
2019-01-19T17:47:26.188Z,18.20
2019-01-19T17:50:45.883Z,15.77
2019-01-19T17:53:45.958Z,15.77
2019-01-19T17:56:58.624Z,17.53
2019-01-19T18:00:02.884Z,16.53
2019-01-19T18:03:06.501Z,17.90
2019-01-19T18:06:09.823Z,18.60
2019-01-19T18:09:15.175Z,20.90
2019-01-19T18:12:22.149Z,18.23
2019-01-19T18:15:39.805Z,17.73
2019-01-19T18:19:25.781Z,17.03
2019-01-19T18:22:35.782Z,17.10
2019-01-19T18:25:21.278Z,16.67
2019-01-19T18:28:20.624Z,17.73
2019-01-19T18:31:20.582Z,18.53
2019-01-19T18:34:09.635Z,18.73
2019-01-19T18:37:17.578Z,18.77
2019-01-19T18:40:09.116Z,18.80
2019-01-19T18:43:23.187Z,19.93
2019-01-19T18:46:29.340Z,17.90
2019-01-19T18:49:16.547Z,18.00
2019-01-19T18:52:09.241Z,18.73
2019-01-19T18:55:07.268Z,18.67
2019-01-19T18:58:20.933Z,18.23
2019-01-19T19:01:30.413Z,18.00
2019-01-19T19:05:04.052Z,18.00
2019-01-19T19:07:58.832Z,18.73
2019-01-19T19:11:13.143Z,18.00
2019-01-19T19:14:13.555Z,19.03
2019-01-19T19:17:01.137Z,18.47
2019-01-19T19:20:02.995Z,20.40
2019-01-19T19:22:48.704Z,19.23
2019-01-19T19:25:45.853Z,20.17
2019-01-19T19:29:04.391Z,17.60
2019-01-19T19:32:05.363Z,18.07
2019-01-19T19:35:31.146Z,18.63
2019-01-19T19:38:44.623Z,19.20
2019-01-19T19:41:52.837Z,18.30
2019-01-19T19:44:52.128Z,18.07
2019-01-19T19:47:50.647Z,19.30
2019-01-19T19:50:51.439Z,19.40
2019-01-19T19:53:22.733Z,19.50
2019-01-19T19:55:52.475Z,19.53
2019-01-19T19:58:23.848Z,20.77
2019-01-19T20:00:55.277Z,20.50
2019-01-19T20:03:26.801Z,19.93
2019-01-19T20:05:58.354Z,21.63
2019-01-19T20:08:30.107Z,20.27
2019-01-19T20:11:01.803Z,21.10
2019-01-19T20:13:33.245Z,19.50
2019-01-19T20:16:04.628Z,20.70
2019-01-19T20:18:36.136Z,20.03
2019-01-19T20:21:08.004Z,19.63
2019-01-19T20:23:39.551Z,22.10
2019-01-19T20:26:11.006Z,20.53
2019-01-19T20:28:42.393Z,20.10
2019-01-19T20:31:14.848Z,19.63
2019-01-19T20:33:46.394Z,21.33
2019-01-19T20:36:17.743Z,22.70
2019-01-19T20:38:51.331Z,22.73
2019-01-19T20:41:22.943Z,20.37
2019-01-19T20:43:54.268Z,20.93
2019-01-19T20:46:25.973Z,19.70
2019-01-19T20:48:57.570Z,20.50
2019-01-19T20:51:29.209Z,21.03
2019-01-19T20:54:00.817Z,20.20
2019-01-19T20:56:32.430Z,20.60
2019-01-19T20:59:04.083Z,20.40
2019-01-19T21:01:35.488Z,21.73
2019-01-19T21:04:07.069Z,18.97
2019-01-19T21:06:39.534Z,19.70
2019-01-19T21:09:11.974Z,20.17
2019-01-19T21:11:43.278Z,20.43
2019-01-19T21:14:14.409Z,19.73
2019-01-19T21:16:45.738Z,20.60
2019-01-19T21:19:17.026Z,20.50
2019-01-19T21:21:48.207Z,20.53
2019-01-19T21:24:19.482Z,22.27
2019-01-19T21:26:50.762Z,19.43
2019-01-19T21:29:22.166Z,20.33
2019-01-19T21:31:53.378Z,20.07
2019-01-19T21:34:24.773Z,19.20
2019-01-19T21:36:55.983Z,18.63
2019-01-19T21:39:27.174Z,19.13
2019-01-19T21:41:58.462Z,19.07
2019-01-19T21:44:29.745Z,19.80
2019-01-19T21:47:00.972Z,19.83
2019-01-19T21:49:34.801Z,20.37
2019-01-19T21:52:06.404Z,18.77
2019-01-19T21:54:37.733Z,19.37
2019-01-19T21:57:08.954Z,20.27
2019-01-19T21:59:40.150Z,17.77
2019-01-19T22:02:11.343Z,19.80
2019-01-19T22:04:42.635Z,17.83
2019-01-19T22:07:13.828Z,19.10
2019-01-19T22:09:45.149Z,19.90
2019-01-19T22:12:16.360Z,19.57
2019-01-19T22:14:47.557Z,19.33
2019-01-19T22:17:18.746Z,19.33
2019-01-19T22:19:51.028Z,18.70
2019-01-19T22:22:22.192Z,19.90
2019-01-19T22:24:53.388Z,20.33
2019-01-19T22:27:24.802Z,18.70
2019-01-19T22:29:56.025Z,19.30
2019-01-19T22:32:27.339Z,18.80
2019-01-19T22:34:58.624Z,20.03
2019-01-19T22:37:29.811Z,18.63
2019-01-19T22:40:01.755Z,18.57
2019-01-19T22:42:33.159Z,19.50
2019-01-19T22:45:05.674Z,20.00
2019-01-19T22:47:36.924Z,19.43
2019-01-19T22:50:11.022Z,19.60
2019-01-19T22:52:42.210Z,19.60
2019-01-19T22:55:13.462Z,19.27
2019-01-19T22:57:44.743Z,18.67
2019-01-19T23:00:29.096Z,18.83
2019-01-19T23:03:01.949Z,18.83
2019-01-19T23:05:33.326Z,19.20
2019-01-19T23:08:04.797Z,18.00
2019-01-19T23:10:36.128Z,19.07
2019-01-19T23:13:07.790Z,19.07
2019-01-19T23:15:39.217Z,19.10
2019-01-19T23:18:10.591Z,18.97
2019-01-19T23:20:41.771Z,18.00
2019-01-19T23:23:12.979Z,18.13
2019-01-19T23:25:44.469Z,16.57
2019-01-19T23:28:15.809Z,18.10
2019-01-19T23:30:47.094Z,17.67
2019-01-19T23:33:18.249Z,18.47
2019-01-19T23:35:49.614Z,19.43
2019-01-19T23:38:20.758Z,18.57
2019-01-19T23:40:51.991Z,18.57
2019-01-19T23:43:23.309Z,18.17
2019-01-19T23:45:54.469Z,19.20
2019-01-19T23:48:25.771Z,19.53
2019-01-19T23:50:56.976Z,20.13
2019-01-19T23:53:28.220Z,17.57
2019-01-19T23:55:59.400Z,18.93
2019-01-19T23:58:30.609Z,18.37
